sensor_id;sensor_type;location;lat;lon;timestamp;temperature;humidity
6518;DHT22;3292;48.944;9.240;2023-08-30T00:00:13;13.20;99.90
6518;DHT22;3292;48.944;9.240;2023-08-30T00:02:41;13.20;99.90
6518;DHT22;3292;48.944;9.240;2023-08-30T00:05:08;13.20;99.90
6518;DHT22;3292;48.944;9.240;2023-08-30T00:07:35;13.20;99.90
6518;DHT22;3292;48.944;9.240;2023-08-30T00:10:02;13.20;99.90
6518;DHT22;3292;48.944;9.240;2023-08-30T00:12:30;13.30;99.90
6518;DHT22;3292;48.944;9.240;2023-08-30T00:14:57;13.30;99.90
6518;DHT22;3292;48.944;9.240;2023-08-30T00:17:23;13.30;99.90
6518;DHT22;3292;48.944;9.240;2023-08-30T00:19:50;13.20;99.90
6518;DHT22;3292;48.944;9.240;2023-08-30T00:22:18;13.20;99.90
6518;DHT22;3292;48.944;9.240;2023-08-30T00:24:45;13.30;99.90
6518;DHT22;3292;48.944;9.240;2023-08-30T00:27:12;13.30;99.90
6518;DHT22;3292;48.944;9.240;2023-08-30T00:29:40;13.30;99.90
6518;DHT22;3292;48.944;9.240;2023-08-30T00:32:06;13.30;99.90
6518;DHT22;3292;48.944;9.240;2023-08-30T00:34:33;13.40;99.90
6518;DHT22;3292;48.944;9.240;2023-08-30T00:37:00;13.30;99.90
6518;DHT22;3292;48.944;9.240;2023-08-30T00:39:27;13.30;99.90
6518;DHT22;3292;48.944;9.240;2023-08-30T00:41:54;13.30;99.90
6518;DHT22;3292;48.944;9.240;2023-08-30T00:44:21;13.30;99.90
6518;DHT22;3292;48.944;9.240;2023-08-30T00:46:49;13.20;99.90
6518;DHT22;3292;48.944;9.240;2023-08-30T00:49:16;13.20;99.90
6518;DHT22;3292;48.944;9.240;2023-08-30T00:51:43;13.20;99.90
6518;DHT22;3292;48.944;9.240;2023-08-30T00:54:09;13.20;99.90
6518;DHT22;3292;48.944;9.240;2023-08-30T00:56:37;13.10;99.90
6518;DHT22;3292;48.944;9.240;2023-08-30T00:59:03;13.10;99.90
6518;DHT22;3292;48.944;9.240;2023-08-30T01:01:31;13.10;99.90
6518;DHT22;3292;48.944;9.240;2023-08-30T01:03:59;13.10;99.90
6518;DHT22;3292;48.944;9.240;2023-08-30T01:06:27;13.00;99.90
6518;DHT22;3292;48.944;9.240;2023-08-30T01:08:54;13.00;99.90
6518;DHT22;3292;48.944;9.240;2023-08-30T01:11:25;13.00;99.90
6518;DHT22;3292;48.944;9.240;2023-08-30T01:13:55;13.10;99.90
6518;DHT22;3292;48.944;9.240;2023-08-30T01:16:23;13.10;99.90
6518;DHT22;3292;48.944;9.240;2023-08-30T01:18:52;13.10;99.90
6518;DHT22;3292;48.944;9.240;2023-08-30T01:21:30;13.10;99.90
6518;DHT22;3292;48.944;9.240;2023-08-30T01:23:59;13.10;99.90
6518;DHT22;3292;48.944;9.240;2023-08-30T01:26:38;13.10;99.90
6518;DHT22;3292;48.944;9.240;2023-08-30T01:29:09;13.00;99.90
6518;DHT22;3292;48.944;9.240;2023-08-30T01:31:38;13.00;99.90
6518;DHT22;3292;48.944;9.240;2023-08-30T01:34:06;12.90;99.90
6518;DHT22;3292;48.944;9.240;2023-08-30T01:36:33;12.90;99.90
6518;DHT22;3292;48.944;9.240;2023-08-30T01:39:01;12.90;99.90
6518;DHT22;3292;48.944;9.240;2023-08-30T01:41:30;12.90;99.90
6518;DHT22;3292;48.944;9.240;2023-08-30T01:43:57;12.90;99.90
6518;DHT22;3292;48.944;9.240;2023-08-30T01:46:31;12.90;99.90
6518;DHT22;3292;48.944;9.240;2023-08-30T01:48:58;12.90;99.90
6518;DHT22;3292;48.944;9.240;2023-08-30T01:51:26;12.80;99.90
6518;DHT22;3292;48.944;9.240;2023-08-30T01:53:54;12.80;99.90
6518;DHT22;3292;48.944;9.240;2023-08-30T01:56:22;12.70;99.90
6518;DHT22;3292;48.944;9.240;2023-08-30T01:58:49;12.60;99.90
6518;DHT22;3292;48.944;9.240;2023-08-30T02:01:16;12.60;99.90
6518;DHT22;3292;48.944;9.240;2023-08-30T02:03:45;12.60;99.90
6518;DHT22;3292;48.944;9.240;2023-08-30T02:06:14;12.60;99.90
6518;DHT22;3292;48.944;9.240;2023-08-30T02:08:50;12.60;99.90
6518;DHT22;3292;48.944;9.240;2023-08-30T02:11:25;12.40;99.90
6518;DHT22;3292;48.944;9.240;2023-08-30T02:13:54;12.40;99.90
6518;DHT22;3292;48.944;9.240;2023-08-30T02:16:25;12.30;99.90
6518;DHT22;3292;48.944;9.240;2023-08-30T02:18:54;12.40;99.90
6518;DHT22;3292;48.944;9.240;2023-08-30T02:21:21;12.30;99.90
6518;DHT22;3292;48.944;9.240;2023-08-30T02:23:49;12.30;99.90
6518;DHT22;3292;48.944;9.240;2023-08-30T02:26:18;12.30;99.90
6518;DHT22;3292;48.944;9.240;2023-08-30T02:28:45;12.30;99.90
6518;DHT22;3292;48.944;9.240;2023-08-30T02:31:11;12.40;99.90
6518;DHT22;3292;48.944;9.240;2023-08-30T02:33:38;12.40;99.90
6518;DHT22;3292;48.944;9.240;2023-08-30T02:36:06;12.40;99.90
6518;DHT22;3292;48.944;9.240;2023-08-30T02:38:34;12.30;99.90
6518;DHT22;3292;48.944;9.240;2023-08-30T02:41:01;12.30;99.90
6518;DHT22;3292;48.944;9.240;2023-08-30T02:43:28;12.30;99.90
6518;DHT22;3292;48.944;9.240;2023-08-30T02:45:55;12.40;99.90
6518;DHT22;3292;48.944;9.240;2023-08-30T02:48:22;12.40;99.90
6518;DHT22;3292;48.944;9.240;2023-08-30T02:50:48;12.40;99.90
6518;DHT22;3292;48.944;9.240;2023-08-30T02:53:16;12.40;99.90
6518;DHT22;3292;48.944;9.240;2023-08-30T02:55:43;12.40;99.90
6518;DHT22;3292;48.944;9.240;2023-08-30T02:58:10;12.30;99.90
6518;DHT22;3292;48.944;9.240;2023-08-30T03:00:37;12.40;99.90
6518;DHT22;3292;48.944;9.240;2023-08-30T03:03:04;12.30;99.90
6518;DHT22;3292;48.944;9.240;2023-08-30T03:05:31;12.30;99.90
6518;DHT22;3292;48.944;9.240;2023-08-30T03:07:57;12.30;99.90
6518;DHT22;3292;48.944;9.240;2023-08-30T03:10:25;12.30;99.90
6518;DHT22;3292;48.944;9.240;2023-08-30T03:12:52;12.40;99.90
6518;DHT22;3292;48.944;9.240;2023-08-30T03:15:19;12.30;99.90
6518;DHT22;3292;48.944;9.240;2023-08-30T03:17:46;12.30;99.90
6518;DHT22;3292;48.944;9.240;2023-08-30T03:20:13;12.40;99.90
6518;DHT22;3292;48.944;9.240;2023-08-30T03:22:39;12.40;99.90
6518;DHT22;3292;48.944;9.240;2023-08-30T03:25:07;12.40;99.90
6518;DHT22;3292;48.944;9.240;2023-08-30T03:27:36;12.30;99.90
6518;DHT22;3292;48.944;9.240;2023-08-30T03:30:03;12.30;99.90
6518;DHT22;3292;48.944;9.240;2023-08-30T03:32:31;12.30;99.90
6518;DHT22;3292;48.944;9.240;2023-08-30T03:34:58;12.30;99.90
6518;DHT22;3292;48.944;9.240;2023-08-30T03:37:25;12.30;99.90
6518;DHT22;3292;48.944;9.240;2023-08-30T03:39:52;12.40;99.90
6518;DHT22;3292;48.944;9.240;2023-08-30T03:45:42;12.40;99.90
6518;DHT22;3292;48.944;9.240;2023-08-30T03:48:10;12.40;99.90
6518;DHT22;3292;48.944;9.240;2023-08-30T03:50:37;12.40;99.90
6518;DHT22;3292;48.944;9.240;2023-08-30T03:53:03;12.40;99.90
6518;DHT22;3292;48.944;9.240;2023-08-30T03:55:30;12.40;99.90
6518;DHT22;3292;48.944;9.240;2023-08-30T03:57:57;12.50;99.90
6518;DHT22;3292;48.944;9.240;2023-08-30T04:00:24;12.40;99.90
6518;DHT22;3292;48.944;9.240;2023-08-30T04:02:52;12.40;99.90
6518;DHT22;3292;48.944;9.240;2023-08-30T04:05:19;12.40;99.90
6518;DHT22;3292;48.944;9.240;2023-08-30T04:07:45;12.40;99.90
6518;DHT22;3292;48.944;9.240;2023-08-30T04:10:12;12.40;99.90
6518;DHT22;3292;48.944;9.240;2023-08-30T04:12:39;12.40;99.90
6518;DHT22;3292;48.944;9.240;2023-08-30T04:15:06;12.40;99.90
6518;DHT22;3292;48.944;9.240;2023-08-30T04:17:34;12.40;99.90
6518;DHT22;3292;48.944;9.240;2023-08-30T04:20:02;12.40;99.90
6518;DHT22;3292;48.944;9.240;2023-08-30T04:22:29;12.40;99.90
6518;DHT22;3292;48.944;9.240;2023-08-30T04:24:56;12.40;99.90
6518;DHT22;3292;48.944;9.240;2023-08-30T04:27:23;12.40;99.90
6518;DHT22;3292;48.944;9.240;2023-08-30T04:29:49;12.30;99.90
6518;DHT22;3292;48.944;9.240;2023-08-30T04:32:18;12.20;99.90
6518;DHT22;3292;48.944;9.240;2023-08-30T04:34:45;12.20;99.90
6518;DHT22;3292;48.944;9.240;2023-08-30T04:37:13;12.20;99.90
6518;DHT22;3292;48.944;9.240;2023-08-30T04:39:40;12.20;99.90
6518;DHT22;3292;48.944;9.240;2023-08-30T04:42:07;12.20;99.90
6518;DHT22;3292;48.944;9.240;2023-08-30T04:44:34;12.20;99.90
6518;DHT22;3292;48.944;9.240;2023-08-30T04:47:00;12.30;99.90
6518;DHT22;3292;48.944;9.240;2023-08-30T04:49:28;12.20;99.90
6518;DHT22;3292;48.944;9.240;2023-08-30T04:51:55;12.20;99.90
6518;DHT22;3292;48.944;9.240;2023-08-30T04:54:23;12.20;99.90
6518;DHT22;3292;48.944;9.240;2023-08-30T04:56:50;12.30;99.90
6518;DHT22;3292;48.944;9.240;2023-08-30T04:59:17;12.30;99.90
6518;DHT22;3292;48.944;9.240;2023-08-30T05:01:43;12.30;99.90
6518;DHT22;3292;48.944;9.240;2023-08-30T05:04:10;12.30;99.90
6518;DHT22;3292;48.944;9.240;2023-08-30T05:06:37;12.40;99.90
6518;DHT22;3292;48.944;9.240;2023-08-30T05:09:04;12.40;99.90
6518;DHT22;3292;48.944;9.240;2023-08-30T05:11:32;12.50;99.90
6518;DHT22;3292;48.944;9.240;2023-08-30T05:13:59;12.40;99.90
6518;DHT22;3292;48.944;9.240;2023-08-30T05:16:26;12.50;99.90
6518;DHT22;3292;48.944;9.240;2023-08-30T05:18:52;12.50;99.90
6518;DHT22;3292;48.944;9.240;2023-08-30T05:21:19;12.50;99.90
6518;DHT22;3292;48.944;9.240;2023-08-30T05:23:46;12.50;99.90
6518;DHT22;3292;48.944;9.240;2023-08-30T05:26:13;12.50;99.90
6518;DHT22;3292;48.944;9.240;2023-08-30T05:28:41;12.50;99.90
6518;DHT22;3292;48.944;9.240;2023-08-30T05:31:08;12.60;99.90
6518;DHT22;3292;48.944;9.240;2023-08-30T05:33:35;12.60;99.90
6518;DHT22;3292;48.944;9.240;2023-08-30T05:36:02;12.60;99.90
6518;DHT22;3292;48.944;9.240;2023-08-30T05:38:29;12.60;99.90
6518;DHT22;3292;48.944;9.240;2023-08-30T05:40:56;12.60;99.90
6518;DHT22;3292;48.944;9.240;2023-08-30T05:43:23;12.60;99.90
6518;DHT22;3292;48.944;9.240;2023-08-30T05:45:51;12.70;99.90
6518;DHT22;3292;48.944;9.240;2023-08-30T05:48:18;12.70;99.90
6518;DHT22;3292;48.944;9.240;2023-08-30T05:50:45;12.70;99.90
6518;DHT22;3292;48.944;9.240;2023-08-30T05:53:11;12.80;99.90
6518;DHT22;3292;48.944;9.240;2023-08-30T05:55:38;12.80;99.90
6518;DHT22;3292;48.944;9.240;2023-08-30T05:58:05;12.90;99.90
6518;DHT22;3292;48.944;9.240;2023-08-30T06:00:32;13.00;99.90
6518;DHT22;3292;48.944;9.240;2023-08-30T06:03:00;12.90;99.90
6518;DHT22;3292;48.944;9.240;2023-08-30T06:05:28;13.00;99.90
6518;DHT22;3292;48.944;9.240;2023-08-30T06:07:55;13.00;99.90
6518;DHT22;3292;48.944;9.240;2023-08-30T06:10:22;13.00;99.90
6518;DHT22;3292;48.944;9.240;2023-08-30T06:12:49;13.00;99.90
6518;DHT22;3292;48.944;9.240;2023-08-30T06:15:16;13.10;99.90
6518;DHT22;3292;48.944;9.240;2023-08-30T06:17:43;13.10;99.90
6518;DHT22;3292;48.944;9.240;2023-08-30T06:20:13;13.10;99.90
6518;DHT22;3292;48.944;9.240;2023-08-30T06:22:40;13.10;99.90
6518;DHT22;3292;48.944;9.240;2023-08-30T06:25:08;13.20;99.90
6518;DHT22;3292;48.944;9.240;2023-08-30T06:27:41;13.30;99.90
6518;DHT22;3292;48.944;9.240;2023-08-30T06:30:10;13.30;99.90
6518;DHT22;3292;48.944;9.240;2023-08-30T06:32:36;13.40;99.90
6518;DHT22;3292;48.944;9.240;2023-08-30T06:35:04;13.40;99.90
6518;DHT22;3292;48.944;9.240;2023-08-30T06:37:32;13.40;99.90
6518;DHT22;3292;48.944;9.240;2023-08-30T06:39:59;13.40;99.90
6518;DHT22;3292;48.944;9.240;2023-08-30T06:42:26;13.40;99.90
6518;DHT22;3292;48.944;9.240;2023-08-30T06:44:53;13.50;99.90
6518;DHT22;3292;48.944;9.240;2023-08-30T06:47:20;13.50;99.90
6518;DHT22;3292;48.944;9.240;2023-08-30T06:49:47;13.50;99.90
6518;DHT22;3292;48.944;9.240;2023-08-30T06:52:13;13.60;99.90
6518;DHT22;3292;48.944;9.240;2023-08-30T06:54:42;13.60;99.90
6518;DHT22;3292;48.944;9.240;2023-08-30T06:57:08;13.60;99.90
6518;DHT22;3292;48.944;9.240;2023-08-30T06:59:35;13.60;99.90
6518;DHT22;3292;48.944;9.240;2023-08-30T07:02:02;13.70;99.90
6518;DHT22;3292;48.944;9.240;2023-08-30T07:04:29;13.70;99.90
6518;DHT22;3292;48.944;9.240;2023-08-30T07:06:56;13.70;99.90
6518;DHT22;3292;48.944;9.240;2023-08-30T07:09:23;13.80;99.90
6518;DHT22;3292;48.944;9.240;2023-08-30T07:11:55;13.90;99.90
6518;DHT22;3292;48.944;9.240;2023-08-30T07:14:22;13.90;99.90
6518;DHT22;3292;48.944;9.240;2023-08-30T07:16:49;14.00;99.90
6518;DHT22;3292;48.944;9.240;2023-08-30T07:19:16;13.90;99.90
6518;DHT22;3292;48.944;9.240;2023-08-30T07:21:43;13.90;99.90
6518;DHT22;3292;48.944;9.240;2023-08-30T07:24:10;14.00;99.90
6518;DHT22;3292;48.944;9.240;2023-08-30T07:26:37;14.00;99.90
6518;DHT22;3292;48.944;9.240;2023-08-30T07:29:05;14.10;99.90
6518;DHT22;3292;48.944;9.240;2023-08-30T07:31:32;14.10;99.90
6518;DHT22;3292;48.944;9.240;2023-08-30T07:33:59;14.20;99.90
6518;DHT22;3292;48.944;9.240;2023-08-30T07:36:26;14.20;99.90
6518;DHT22;3292;48.944;9.240;2023-08-30T07:38:53;14.30;99.90
6518;DHT22;3292;48.944;9.240;2023-08-30T07:41:20;14.30;99.90
6518;DHT22;3292;48.944;9.240;2023-08-30T07:43:47;14.40;99.90
6518;DHT22;3292;48.944;9.240;2023-08-30T07:46:15;14.40;99.90
6518;DHT22;3292;48.944;9.240;2023-08-30T07:48:42;14.30;99.90
6518;DHT22;3292;48.944;9.240;2023-08-30T07:51:09;14.30;99.90
6518;DHT22;3292;48.944;9.240;2023-08-30T07:53:35;14.30;99.90
6518;DHT22;3292;48.944;9.240;2023-08-30T07:56:02;14.50;99.90
6518;DHT22;3292;48.944;9.240;2023-08-30T07:58:29;14.50;99.90
6518;DHT22;3292;48.944;9.240;2023-08-30T08:00:56;14.60;99.90
6518;DHT22;3292;48.944;9.240;2023-08-30T08:03:24;14.60;99.90
6518;DHT22;3292;48.944;9.240;2023-08-30T08:05:51;14.60;99.90
6518;DHT22;3292;48.944;9.240;2023-08-30T08:08:18;14.70;99.90
6518;DHT22;3292;48.944;9.240;2023-08-30T08:10:45;14.70;99.90
6518;DHT22;3292;48.944;9.240;2023-08-30T08:13:12;14.80;99.90
6518;DHT22;3292;48.944;9.240;2023-08-30T08:15:39;14.90;99.90
6518;DHT22;3292;48.944;9.240;2023-08-30T08:18:06;15.00;99.90
6518;DHT22;3292;48.944;9.240;2023-08-30T08:20:34;15.00;99.90
6518;DHT22;3292;48.944;9.240;2023-08-30T08:23:02;15.00;99.90
6518;DHT22;3292;48.944;9.240;2023-08-30T08:25:29;15.10;99.90
6518;DHT22;3292;48.944;9.240;2023-08-30T08:27:56;15.10;99.90
6518;DHT22;3292;48.944;9.240;2023-08-30T08:30:22;15.20;99.90
6518;DHT22;3292;48.944;9.240;2023-08-30T08:32:49;15.30;99.90
6518;DHT22;3292;48.944;9.240;2023-08-30T08:35:16;15.40;99.90
6518;DHT22;3292;48.944;9.240;2023-08-30T08:37:44;15.40;99.90
6518;DHT22;3292;48.944;9.240;2023-08-30T08:40:11;15.40;99.90
6518;DHT22;3292;48.944;9.240;2023-08-30T08:42:38;15.40;99.90
6518;DHT22;3292;48.944;9.240;2023-08-30T08:45:07;15.40;99.90
6518;DHT22;3292;48.944;9.240;2023-08-30T08:47:36;15.40;99.90
6518;DHT22;3292;48.944;9.240;2023-08-30T08:50:04;15.30;99.90
6518;DHT22;3292;48.944;9.240;2023-08-30T08:52:31;15.50;99.90
6518;DHT22;3292;48.944;9.240;2023-08-30T08:55:00;15.60;99.90
6518;DHT22;3292;48.944;9.240;2023-08-30T08:57:28;15.70;99.90
6518;DHT22;3292;48.944;9.240;2023-08-30T08:59:57;15.90;99.90
6518;DHT22;3292;48.944;9.240;2023-08-30T09:02:24;16.00;99.90
6518;DHT22;3292;48.944;9.240;2023-08-30T09:04:52;16.20;99.90
6518;DHT22;3292;48.944;9.240;2023-08-30T09:07:19;16.60;99.90
6518;DHT22;3292;48.944;9.240;2023-08-30T09:09:47;16.90;99.90
6518;DHT22;3292;48.944;9.240;2023-08-30T09:12:15;17.10;99.90
6518;DHT22;3292;48.944;9.240;2023-08-30T09:14:53;17.20;99.90
6518;DHT22;3292;48.944;9.240;2023-08-30T09:17:20;17.10;99.90
6518;DHT22;3292;48.944;9.240;2023-08-30T09:19:47;17.20;99.90
6518;DHT22;3292;48.944;9.240;2023-08-30T09:22:13;17.10;99.90
6518;DHT22;3292;48.944;9.240;2023-08-30T09:24:41;17.10;99.90
6518;DHT22;3292;48.944;9.240;2023-08-30T09:27:08;17.40;99.90
6518;DHT22;3292;48.944;9.240;2023-08-30T09:29:36;17.50;99.90
6518;DHT22;3292;48.944;9.240;2023-08-30T09:32:03;17.60;99.90
6518;DHT22;3292;48.944;9.240;2023-08-30T09:34:30;17.90;99.90
6518;DHT22;3292;48.944;9.240;2023-08-30T09:36:57;18.10;99.90
6518;DHT22;3292;48.944;9.240;2023-08-30T09:39:26;18.30;99.90
6518;DHT22;3292;48.944;9.240;2023-08-30T09:41:54;18.10;99.90
6518;DHT22;3292;48.944;9.240;2023-08-30T09:44:21;18.40;99.90
6518;DHT22;3292;48.944;9.240;2023-08-30T09:46:52;18.60;99.90
6518;DHT22;3292;48.944;9.240;2023-08-30T09:49:20;18.50;99.90
6518;DHT22;3292;48.944;9.240;2023-08-30T09:51:48;18.60;99.90
6518;DHT22;3292;48.944;9.240;2023-08-30T09:54:19;18.70;99.90
6518;DHT22;3292;48.944;9.240;2023-08-30T09:56:46;18.70;99.90
6518;DHT22;3292;48.944;9.240;2023-08-30T09:59:14;18.80;99.90
6518;DHT22;3292;48.944;9.240;2023-08-30T10:01:42;19.10;99.90
6518;DHT22;3292;48.944;9.240;2023-08-30T10:04:10;18.80;99.90
6518;DHT22;3292;48.944;9.240;2023-08-30T10:06:38;18.90;99.90
6518;DHT22;3292;48.944;9.240;2023-08-30T10:09:06;19.00;99.90
6518;DHT22;3292;48.944;9.240;2023-08-30T10:11:35;19.20;99.90
6518;DHT22;3292;48.944;9.240;2023-08-30T10:14:03;18.90;99.90
6518;DHT22;3292;48.944;9.240;2023-08-30T10:16:42;19.10;99.90
6518;DHT22;3292;48.944;9.240;2023-08-30T10:19:14;19.10;99.90
6518;DHT22;3292;48.944;9.240;2023-08-30T10:21:43;19.20;99.90
6518;DHT22;3292;48.944;9.240;2023-08-30T10:24:14;19.20;99.90
6518;DHT22;3292;48.944;9.240;2023-08-30T10:26:43;19.10;99.90
6518;DHT22;3292;48.944;9.240;2023-08-30T10:29:11;19.30;99.90
6518;DHT22;3292;48.944;9.240;2023-08-30T10:31:39;19.20;99.90
6518;DHT22;3292;48.944;9.240;2023-08-30T10:34:14;19.20;99.90
6518;DHT22;3292;48.944;9.240;2023-08-30T10:36:42;19.40;99.90
6518;DHT22;3292;48.944;9.240;2023-08-30T10:39:11;19.60;99.90
6518;DHT22;3292;48.944;9.240;2023-08-30T10:41:54;19.50;99.90
6518;DHT22;3292;48.944;9.240;2023-08-30T10:44:22;19.10;99.90
6518;DHT22;3292;48.944;9.240;2023-08-30T10:46:52;19.20;99.90
6518;DHT22;3292;48.944;9.240;2023-08-30T10:49:21;19.30;99.90
6518;DHT22;3292;48.944;9.240;2023-08-30T10:51:54;19.50;99.90
6518;DHT22;3292;48.944;9.240;2023-08-30T10:54:21;19.70;99.90
6518;DHT22;3292;48.944;9.240;2023-08-30T10:56:54;19.90;99.90
6518;DHT22;3292;48.944;9.240;2023-08-30T10:59:23;20.00;99.90
6518;DHT22;3292;48.944;9.240;2023-08-30T11:01:51;20.30;99.90
6518;DHT22;3292;48.944;9.240;2023-08-30T11:04:20;20.40;99.90
6518;DHT22;3292;48.944;9.240;2023-08-30T11:06:48;20.40;99.90
6518;DHT22;3292;48.944;9.240;2023-08-30T11:09:17;20.40;99.90
6518;DHT22;3292;48.944;9.240;2023-08-30T11:11:45;20.40;99.90
6518;DHT22;3292;48.944;9.240;2023-08-30T11:14:12;20.60;99.90
6518;DHT22;3292;48.944;9.240;2023-08-30T11:16:40;20.40;99.90
6518;DHT22;3292;48.944;9.240;2023-08-30T11:19:08;20.20;99.90
6518;DHT22;3292;48.944;9.240;2023-08-30T11:21:39;20.50;99.90
6518;DHT22;3292;48.944;9.240;2023-08-30T11:24:07;20.70;99.90
6518;DHT22;3292;48.944;9.240;2023-08-30T11:26:34;20.90;99.90
6518;DHT22;3292;48.944;9.240;2023-08-30T11:29:04;21.00;99.90
6518;DHT22;3292;48.944;9.240;2023-08-30T11:31:31;20.90;99.90
6518;DHT22;3292;48.944;9.240;2023-08-30T11:33:59;20.90;99.90
6518;DHT22;3292;48.944;9.240;2023-08-30T11:36:27;20.30;99.90
6518;DHT22;3292;48.944;9.240;2023-08-30T11:38:56;19.60;99.90
6518;DHT22;3292;48.944;9.240;2023-08-30T11:41:24;19.30;99.90
6518;DHT22;3292;48.944;9.240;2023-08-30T11:43:51;19.20;99.90
6518;DHT22;3292;48.944;9.240;2023-08-30T11:46:19;19.30;99.90
6518;DHT22;3292;48.944;9.240;2023-08-30T11:48:47;19.40;99.90
6518;DHT22;3292;48.944;9.240;2023-08-30T11:51:15;19.30;99.90
6518;DHT22;3292;48.944;9.240;2023-08-30T11:53:42;19.30;99.90
6518;DHT22;3292;48.944;9.240;2023-08-30T11:56:11;19.30;99.90
6518;DHT22;3292;48.944;9.240;2023-08-30T11:58:39;19.40;99.90
6518;DHT22;3292;48.944;9.240;2023-08-30T12:01:07;19.50;99.90
6518;DHT22;3292;48.944;9.240;2023-08-30T12:03:34;19.40;99.90
6518;DHT22;3292;48.944;9.240;2023-08-30T12:06:02;19.30;99.90
6518;DHT22;3292;48.944;9.240;2023-08-30T12:08:31;19.20;99.90
6518;DHT22;3292;48.944;9.240;2023-08-30T12:10:58;19.20;99.90
6518;DHT22;3292;48.944;9.240;2023-08-30T12:13:27;19.10;99.90
6518;DHT22;3292;48.944;9.240;2023-08-30T12:15:55;19.10;99.90
6518;DHT22;3292;48.944;9.240;2023-08-30T12:18:23;19.10;99.90
6518;DHT22;3292;48.944;9.240;2023-08-30T12:20:54;19.10;99.90
6518;DHT22;3292;48.944;9.240;2023-08-30T12:23:22;19.10;99.90
6518;DHT22;3292;48.944;9.240;2023-08-30T12:25:59;19.00;99.90
6518;DHT22;3292;48.944;9.240;2023-08-30T12:28:28;18.90;99.90
6518;DHT22;3292;48.944;9.240;2023-08-30T12:30:55;18.80;99.90
6518;DHT22;3292;48.944;9.240;2023-08-30T12:33:23;18.80;99.90
6518;DHT22;3292;48.944;9.240;2023-08-30T12:35:51;18.70;99.90
6518;DHT22;3292;48.944;9.240;2023-08-30T12:38:18;18.80;99.90
6518;DHT22;3292;48.944;9.240;2023-08-30T12:40:45;18.70;99.90
6518;DHT22;3292;48.944;9.240;2023-08-30T12:43:13;18.80;99.90
6518;DHT22;3292;48.944;9.240;2023-08-30T12:45:41;18.80;99.90
6518;DHT22;3292;48.944;9.240;2023-08-30T12:48:09;18.90;99.90
6518;DHT22;3292;48.944;9.240;2023-08-30T12:50:37;19.00;99.90
6518;DHT22;3292;48.944;9.240;2023-08-30T12:53:05;19.00;99.90
6518;DHT22;3292;48.944;9.240;2023-08-30T12:55:33;19.00;99.90
6518;DHT22;3292;48.944;9.240;2023-08-30T12:58:01;19.10;99.90
6518;DHT22;3292;48.944;9.240;2023-08-30T13:00:28;19.10;99.90
6518;DHT22;3292;48.944;9.240;2023-08-30T13:02:56;19.00;99.90
6518;DHT22;3292;48.944;9.240;2023-08-30T13:05:23;18.90;99.90
6518;DHT22;3292;48.944;9.240;2023-08-30T13:07:50;19.10;99.90
6518;DHT22;3292;48.944;9.240;2023-08-30T13:10:17;19.20;99.90
6518;DHT22;3292;48.944;9.240;2023-08-30T13:12:44;19.30;99.90
6518;DHT22;3292;48.944;9.240;2023-08-30T13:15:11;19.20;99.90
6518;DHT22;3292;48.944;9.240;2023-08-30T13:17:38;19.40;99.90
6518;DHT22;3292;48.944;9.240;2023-08-30T13:20:07;19.60;99.90
6518;DHT22;3292;48.944;9.240;2023-08-30T13:22:34;19.70;99.90
6518;DHT22;3292;48.944;9.240;2023-08-30T13:25:00;19.70;99.90
6518;DHT22;3292;48.944;9.240;2023-08-30T13:27:29;19.40;99.90
6518;DHT22;3292;48.944;9.240;2023-08-30T13:29:55;19.60;99.90
6518;DHT22;3292;48.944;9.240;2023-08-30T13:32:22;19.60;99.90
6518;DHT22;3292;48.944;9.240;2023-08-30T13:34:50;19.70;99.90
6518;DHT22;3292;48.944;9.240;2023-08-30T13:37:18;19.70;99.90
6518;DHT22;3292;48.944;9.240;2023-08-30T13:39:45;20.00;99.90
6518;DHT22;3292;48.944;9.240;2023-08-30T13:42:12;19.90;99.90
6518;DHT22;3292;48.944;9.240;2023-08-30T13:44:39;20.20;99.90
6518;DHT22;3292;48.944;9.240;2023-08-30T13:47:08;20.30;99.90
6518;DHT22;3292;48.944;9.240;2023-08-30T13:49:35;20.30;99.90
6518;DHT22;3292;48.944;9.240;2023-08-30T13:52:02;20.30;99.90
6518;DHT22;3292;48.944;9.240;2023-08-30T13:54:31;20.40;99.90
6518;DHT22;3292;48.944;9.240;2023-08-30T13:56:57;20.20;99.90
6518;DHT22;3292;48.944;9.240;2023-08-30T13:59:25;20.00;99.90
6518;DHT22;3292;48.944;9.240;2023-08-30T14:01:53;19.90;99.90
6518;DHT22;3292;48.944;9.240;2023-08-30T14:04:23;20.00;99.90
6518;DHT22;3292;48.944;9.240;2023-08-30T14:06:51;20.10;99.90
6518;DHT22;3292;48.944;9.240;2023-08-30T14:09:17;20.10;99.90
6518;DHT22;3292;48.944;9.240;2023-08-30T14:11:46;20.00;99.90
6518;DHT22;3292;48.944;9.240;2023-08-30T14:14:13;20.00;99.90
6518;DHT22;3292;48.944;9.240;2023-08-30T14:16:39;20.00;99.90
6518;DHT22;3292;48.944;9.240;2023-08-30T14:19:06;19.70;99.90
6518;DHT22;3292;48.944;9.240;2023-08-30T14:21:33;19.80;99.90
6518;DHT22;3292;48.944;9.240;2023-08-30T14:24:00;19.70;99.90
6518;DHT22;3292;48.944;9.240;2023-08-30T14:26:28;19.60;99.90
6518;DHT22;3292;48.944;9.240;2023-08-30T14:28:56;19.50;99.90
6518;DHT22;3292;48.944;9.240;2023-08-30T14:31:23;19.40;99.90
6518;DHT22;3292;48.944;9.240;2023-08-30T14:33:54;19.20;99.90
6518;DHT22;3292;48.944;9.240;2023-08-30T14:36:22;19.10;99.90
6518;DHT22;3292;48.944;9.240;2023-08-30T14:38:49;19.00;99.90
6518;DHT22;3292;48.944;9.240;2023-08-30T14:41:16;19.00;99.90
6518;DHT22;3292;48.944;9.240;2023-08-30T14:43:43;18.90;99.90
6518;DHT22;3292;48.944;9.240;2023-08-30T14:46:11;18.90;99.90
6518;DHT22;3292;48.944;9.240;2023-08-30T14:48:41;18.90;99.90
6518;DHT22;3292;48.944;9.240;2023-08-30T14:51:08;18.90;99.90
6518;DHT22;3292;48.944;9.240;2023-08-30T14:53:35;19.00;99.90
6518;DHT22;3292;48.944;9.240;2023-08-30T14:56:02;19.00;99.90
6518;DHT22;3292;48.944;9.240;2023-08-30T14:58:32;18.90;99.90
6518;DHT22;3292;48.944;9.240;2023-08-30T15:00:59;19.10;99.90
6518;DHT22;3292;48.944;9.240;2023-08-30T15:03:27;19.10;99.90
6518;DHT22;3292;48.944;9.240;2023-08-30T15:05:54;19.20;99.90
6518;DHT22;3292;48.944;9.240;2023-08-30T15:08:22;19.10;99.90
6518;DHT22;3292;48.944;9.240;2023-08-30T15:10:49;19.10;99.90
6518;DHT22;3292;48.944;9.240;2023-08-30T15:13:16;19.10;99.90
6518;DHT22;3292;48.944;9.240;2023-08-30T15:15:43;19.00;99.90
6518;DHT22;3292;48.944;9.240;2023-08-30T15:18:10;19.00;99.90
6518;DHT22;3292;48.944;9.240;2023-08-30T15:20:38;19.10;99.90
6518;DHT22;3292;48.944;9.240;2023-08-30T15:23:05;19.20;99.90
6518;DHT22;3292;48.944;9.240;2023-08-30T15:25:32;19.20;99.90
6518;DHT22;3292;48.944;9.240;2023-08-30T15:28:00;19.20;99.90
6518;DHT22;3292;48.944;9.240;2023-08-30T15:30:26;19.30;99.90
6518;DHT22;3292;48.944;9.240;2023-08-30T15:32:53;19.40;99.90
6518;DHT22;3292;48.944;9.240;2023-08-30T15:35:20;19.50;99.90
6518;DHT22;3292;48.944;9.240;2023-08-30T15:37:48;19.50;99.90
6518;DHT22;3292;48.944;9.240;2023-08-30T15:40:15;19.40;99.90
6518;DHT22;3292;48.944;9.240;2023-08-30T15:42:42;19.50;99.90
6518;DHT22;3292;48.944;9.240;2023-08-30T15:45:09;19.40;99.90
6518;DHT22;3292;48.944;9.240;2023-08-30T15:47:36;19.20;99.90
6518;DHT22;3292;48.944;9.240;2023-08-30T15:50:03;19.20;99.90
6518;DHT22;3292;48.944;9.240;2023-08-30T15:52:30;19.20;99.90
6518;DHT22;3292;48.944;9.240;2023-08-30T15:54:58;19.10;99.90
6518;DHT22;3292;48.944;9.240;2023-08-30T15:57:25;19.00;99.90
6518;DHT22;3292;48.944;9.240;2023-08-30T15:59:52;19.10;99.90
6518;DHT22;3292;48.944;9.240;2023-08-30T16:02:19;19.20;99.90
6518;DHT22;3292;48.944;9.240;2023-08-30T16:04:46;19.30;99.90
6518;DHT22;3292;48.944;9.240;2023-08-30T16:07:12;19.30;99.90